sensor_id;sensor_type;location;lat;lon;timestamp;P1;durP1;ratioP1;P2;durP2;ratioP2
46731;SDS011;32477;51.474;5.696;2024-01-16T00:01:20;10.18;;;4.43;;
46731;SDS011;32477;51.474;5.696;2024-01-16T00:03:46;8.95;;;3.53;;
46731;SDS011;32477;51.474;5.696;2024-01-16T00:06:11;14.18;;;4.38;;
46731;SDS011;32477;51.474;5.696;2024-01-16T00:08:37;16.90;;;4.38;;
46731;SDS011;32477;51.474;5.696;2024-01-16T00:11:03;13.43;;;4.15;;
46731;SDS011;32477;51.474;5.696;2024-01-16T00:13:29;12.18;;;4.10;;
46731;SDS011;32477;51.474;5.696;2024-01-16T00:15:54;7.60;;;3.92;;
46731;SDS011;32477;51.474;5.696;2024-01-16T00:18:21;6.32;;;3.35;;
46731;SDS011;32477;51.474;5.696;2024-01-16T00:20:47;6.57;;;3.38;;
46731;SDS011;32477;51.474;5.696;2024-01-16T00:23:13;6.85;;;3.38;;
46731;SDS011;32477;51.474;5.696;2024-01-16T00:25:39;6.60;;;3.60;;
46731;SDS011;32477;51.474;5.696;2024-01-16T00:28:05;4.93;;;3.42;;
46731;SDS011;32477;51.474;5.696;2024-01-16T00:30:31;5.63;;;3.30;;
46731;SDS011;32477;51.474;5.696;2024-01-16T00:32:56;11.35;;;3.53;;
46731;SDS011;32477;51.474;5.696;2024-01-16T00:35:22;12.88;;;4.70;;
46731;SDS011;32477;51.474;5.696;2024-01-16T00:37:48;6.88;;;3.67;;
46731;SDS011;32477;51.474;5.696;2024-01-16T00:40:14;6.85;;;4.05;;
46731;SDS011;32477;51.474;5.696;2024-01-16T00:42:39;9.88;;;3.85;;
46731;SDS011;32477;51.474;5.696;2024-01-16T00:45:05;8.60;;;4.30;;
46731;SDS011;32477;51.474;5.696;2024-01-16T00:47:31;8.32;;;4.60;;
46731;SDS011;32477;51.474;5.696;2024-01-16T00:49:58;10.77;;;4.47;;
46731;SDS011;32477;51.474;5.696;2024-01-16T00:52:26;10.55;;;4.45;;
46731;SDS011;32477;51.474;5.696;2024-01-16T00:54:52;10.00;;;4.53;;
46731;SDS011;32477;51.474;5.696;2024-01-16T00:57:17;16.83;;;5.60;;
46731;SDS011;32477;51.474;5.696;2024-01-16T00:59:44;11.02;;;5.35;;
46731;SDS011;32477;51.474;5.696;2024-01-16T01:02:14;15.25;;;4.93;;
46731;SDS011;32477;51.474;5.696;2024-01-16T01:04:39;11.60;;;4.82;;
46731;SDS011;32477;51.474;5.696;2024-01-16T01:07:06;11.30;;;4.65;;
46731;SDS011;32477;51.474;5.696;2024-01-16T01:09:34;19.90;;;4.93;;
46731;SDS011;32477;51.474;5.696;2024-01-16T01:11:59;9.88;;;5.20;;
46731;SDS011;32477;51.474;5.696;2024-01-16T01:14:25;17.33;;;4.60;;
46731;SDS011;32477;51.474;5.696;2024-01-16T01:16:54;7.93;;;4.55;;
46731;SDS011;32477;51.474;5.696;2024-01-16T01:19:19;14.50;;;4.32;;
46731;SDS011;32477;51.474;5.696;2024-01-16T01:21:45;12.27;;;4.35;;
46731;SDS011;32477;51.474;5.696;2024-01-16T01:24:11;7.45;;;4.28;;
46731;SDS011;32477;51.474;5.696;2024-01-16T01:26:36;12.00;;;5.03;;
46731;SDS011;32477;51.474;5.696;2024-01-16T01:29:02;11.05;;;4.20;;
46731;SDS011;32477;51.474;5.696;2024-01-16T01:31:27;8.95;;;4.18;;
46731;SDS011;32477;51.474;5.696;2024-01-16T01:33:53;14.95;;;4.60;;
46731;SDS011;32477;51.474;5.696;2024-01-16T01:36:19;8.30;;;3.40;;
46731;SDS011;32477;51.474;5.696;2024-01-16T01:38:44;14.85;;;4.40;;
46731;SDS011;32477;51.474;5.696;2024-01-16T01:41:10;7.05;;;3.85;;
46731;SDS011;32477;51.474;5.696;2024-01-16T01:43:39;17.63;;;5.22;;
46731;SDS011;32477;51.474;5.696;2024-01-16T01:46:15;11.40;;;4.57;;
46731;SDS011;32477;51.474;5.696;2024-01-16T01:48:43;12.10;;;4.75;;
46731;SDS011;32477;51.474;5.696;2024-01-16T01:51:10;14.25;;;4.85;;
46731;SDS011;32477;51.474;5.696;2024-01-16T01:53:38;8.88;;;4.47;;
46731;SDS011;32477;51.474;5.696;2024-01-16T01:56:17;12.23;;;4.43;;
46731;SDS011;32477;51.474;5.696;2024-01-16T01:58:44;15.35;;;4.53;;
46731;SDS011;32477;51.474;5.696;2024-01-16T02:01:12;19.55;;;5.18;;
46731;SDS011;32477;51.474;5.696;2024-01-16T02:03:46;15.05;;;4.80;;
46731;SDS011;32477;51.474;5.696;2024-01-16T02:06:12;8.60;;;3.97;;
46731;SDS011;32477;51.474;5.696;2024-01-16T02:08:40;7.07;;;3.72;;
46731;SDS011;32477;51.474;5.696;2024-01-16T02:11:06;16.85;;;4.80;;
46731;SDS011;32477;51.474;5.696;2024-01-16T02:13:31;8.77;;;4.25;;
46731;SDS011;32477;51.474;5.696;2024-01-16T02:15:57;15.60;;;4.60;;
46731;SDS011;32477;51.474;5.696;2024-01-16T02:18:22;8.60;;;3.53;;
46731;SDS011;32477;51.474;5.696;2024-01-16T02:20:48;7.20;;;3.35;;
46731;SDS011;32477;51.474;5.696;2024-01-16T02:23:14;12.43;;;3.88;;
46731;SDS011;32477;51.474;5.696;2024-01-16T02:25:43;7.45;;;3.50;;
46731;SDS011;32477;51.474;5.696;2024-01-16T02:28:09;8.35;;;3.65;;
46731;SDS011;32477;51.474;5.696;2024-01-16T02:30:35;14.23;;;3.30;;
46731;SDS011;32477;51.474;5.696;2024-01-16T02:33:01;11.27;;;3.03;;
46731;SDS011;32477;51.474;5.696;2024-01-16T02:35:28;5.55;;;2.42;;
46731;SDS011;32477;51.474;5.696;2024-01-16T02:37:54;11.63;;;2.78;;
46731;SDS011;32477;51.474;5.696;2024-01-16T02:40:20;5.80;;;2.33;;
46731;SDS011;32477;51.474;5.696;2024-01-16T02:42:45;9.85;;;2.53;;
46731;SDS011;32477;51.474;5.696;2024-01-16T02:45:11;9.05;;;2.75;;
46731;SDS011;32477;51.474;5.696;2024-01-16T02:47:37;4.50;;;2.25;;
46731;SDS011;32477;51.474;5.696;2024-01-16T02:50:02;8.23;;;2.20;;
46731;SDS011;32477;51.474;5.696;2024-01-16T02:52:28;5.82;;;1.90;;
46731;SDS011;32477;51.474;5.696;2024-01-16T02:54:54;6.22;;;3.03;;
46731;SDS011;32477;51.474;5.696;2024-01-16T02:57:19;8.70;;;2.38;;
46731;SDS011;32477;51.474;5.696;2024-01-16T02:59:45;7.82;;;2.15;;
46731;SDS011;32477;51.474;5.696;2024-01-16T03:02:11;4.57;;;2.13;;
46731;SDS011;32477;51.474;5.696;2024-01-16T03:04:37;4.50;;;2.20;;
46731;SDS011;32477;51.474;5.696;2024-01-16T03:07:03;6.65;;;2.50;;
46731;SDS011;32477;51.474;5.696;2024-01-16T03:09:28;9.48;;;2.78;;
46731;SDS011;32477;51.474;5.696;2024-01-16T03:11:54;8.73;;;1.95;;
46731;SDS011;32477;51.474;5.696;2024-01-16T03:14:20;5.47;;;3.10;;
46731;SDS011;32477;51.474;5.696;2024-01-16T03:16:45;5.43;;;2.38;;
46731;SDS011;32477;51.474;5.696;2024-01-16T03:19:12;4.95;;;2.47;;
46731;SDS011;32477;51.474;5.696;2024-01-16T03:21:37;5.07;;;2.17;;
46731;SDS011;32477;51.474;5.696;2024-01-16T03:24:04;9.23;;;2.58;;
46731;SDS011;32477;51.474;5.696;2024-01-16T03:26:30;9.23;;;2.22;;
46731;SDS011;32477;51.474;5.696;2024-01-16T03:28:56;9.15;;;2.97;;
46731;SDS011;32477;51.474;5.696;2024-01-16T03:31:22;9.20;;;1.77;;
46731;SDS011;32477;51.474;5.696;2024-01-16T03:33:48;6.13;;;3.20;;
46731;SDS011;32477;51.474;5.696;2024-01-16T03:36:13;5.45;;;2.25;;
46731;SDS011;32477;51.474;5.696;2024-01-16T03:38:41;7.63;;;2.15;;
46731;SDS011;32477;51.474;5.696;2024-01-16T03:41:07;3.97;;;2.45;;
46731;SDS011;32477;51.474;5.696;2024-01-16T03:43:33;12.73;;;2.28;;
46731;SDS011;32477;51.474;5.696;2024-01-16T03:45:59;7.80;;;2.30;;
46731;SDS011;32477;51.474;5.696;2024-01-16T03:48:25;7.28;;;2.13;;
46731;SDS011;32477;51.474;5.696;2024-01-16T03:50:51;5.53;;;2.08;;
46731;SDS011;32477;51.474;5.696;2024-01-16T03:53:16;13.40;;;3.42;;
46731;SDS011;32477;51.474;5.696;2024-01-16T03:55:42;14.82;;;3.65;;
46731;SDS011;32477;51.474;5.696;2024-01-16T03:58:08;9.93;;;3.80;;
46731;SDS011;32477;51.474;5.696;2024-01-16T04:00:34;16.13;;;4.80;;
46731;SDS011;32477;51.474;5.696;2024-01-16T04:02:59;15.75;;;5.53;;
46731;SDS011;32477;51.474;5.696;2024-01-16T04:05:25;21.38;;;7.10;;
46731;SDS011;32477;51.474;5.696;2024-01-16T04:07:50;15.15;;;6.97;;
46731;SDS011;32477;51.474;5.696;2024-01-16T04:10:17;18.38;;;7.75;;
46731;SDS011;32477;51.474;5.696;2024-01-16T04:12:43;24.20;;;8.75;;
46731;SDS011;32477;51.474;5.696;2024-01-16T04:15:09;24.50;;;9.50;;
46731;SDS011;32477;51.474;5.696;2024-01-16T04:17:34;26.52;;;10.10;;
46731;SDS011;32477;51.474;5.696;2024-01-16T04:20:00;28.50;;;10.77;;
46731;SDS011;32477;51.474;5.696;2024-01-16T04:22:25;30.38;;;10.75;;
46731;SDS011;32477;51.474;5.696;2024-01-16T04:24:51;25.65;;;11.18;;
46731;SDS011;32477;51.474;5.696;2024-01-16T04:27:17;46.38;;;10.57;;
46731;SDS011;32477;51.474;5.696;2024-01-16T04:29:43;20.27;;;9.65;;
46731;SDS011;32477;51.474;5.696;2024-01-16T04:32:09;34.25;;;11.82;;
46731;SDS011;32477;51.474;5.696;2024-01-16T04:34:34;23.80;;;10.57;;
46731;SDS011;32477;51.474;5.696;2024-01-16T04:37:00;29.08;;;10.45;;
46731;SDS011;32477;51.474;5.696;2024-01-16T04:39:25;21.60;;;10.93;;
46731;SDS011;32477;51.474;5.696;2024-01-16T04:41:51;28.73;;;11.07;;
46731;SDS011;32477;51.474;5.696;2024-01-16T04:44:16;24.02;;;10.55;;
46731;SDS011;32477;51.474;5.696;2024-01-16T04:46:42;20.73;;;9.55;;
46731;SDS011;32477;51.474;5.696;2024-01-16T04:49:08;26.85;;;10.50;;
46731;SDS011;32477;51.474;5.696;2024-01-16T04:51:34;20.17;;;9.95;;
46731;SDS011;32477;51.474;5.696;2024-01-16T04:53:59;25.90;;;9.30;;
46731;SDS011;32477;51.474;5.696;2024-01-16T04:56:25;34.20;;;9.38;;
46731;SDS011;32477;51.474;5.696;2024-01-16T04:58:50;32.35;;;8.52;;
46731;SDS011;32477;51.474;5.696;2024-01-16T05:01:17;26.50;;;9.50;;
46731;SDS011;32477;51.474;5.696;2024-01-16T05:03:42;22.70;;;9.20;;
46731;SDS011;32477;51.474;5.696;2024-01-16T05:06:12;22.90;;;8.52;;
46731;SDS011;32477;51.474;5.696;2024-01-16T05:08:39;22.90;;;9.80;;
46731;SDS011;32477;51.474;5.696;2024-01-16T05:11:05;15.82;;;7.78;;
46731;SDS011;32477;51.474;5.696;2024-01-16T05:13:30;23.30;;;8.02;;
46731;SDS011;32477;51.474;5.696;2024-01-16T05:15:56;19.63;;;8.68;;
46731;SDS011;32477;51.474;5.696;2024-01-16T05:18:21;33.65;;;9.30;;
46731;SDS011;32477;51.474;5.696;2024-01-16T05:20:47;31.10;;;8.30;;
46731;SDS011;32477;51.474;5.696;2024-01-16T05:23:13;26.80;;;9.80;;
46731;SDS011;32477;51.474;5.696;2024-01-16T05:25:38;21.63;;;8.50;;
46731;SDS011;32477;51.474;5.696;2024-01-16T05:28:04;23.83;;;8.60;;
46731;SDS011;32477;51.474;5.696;2024-01-16T05:30:30;15.88;;;7.60;;
46731;SDS011;32477;51.474;5.696;2024-01-16T05:32:55;17.00;;;8.20;;
46731;SDS011;32477;51.474;5.696;2024-01-16T05:35:25;26.50;;;8.27;;
46731;SDS011;32477;51.474;5.696;2024-01-16T05:37:52;26.90;;;8.13;;
46731;SDS011;32477;51.474;5.696;2024-01-16T05:40:18;30.40;;;9.00;;
46731;SDS011;32477;51.474;5.696;2024-01-16T05:42:43;25.92;;;8.07;;
46731;SDS011;32477;51.474;5.696;2024-01-16T05:45:09;30.02;;;9.20;;
46731;SDS011;32477;51.474;5.696;2024-01-16T05:47:34;23.02;;;7.93;;
46731;SDS011;32477;51.474;5.696;2024-01-16T05:50:00;21.55;;;9.63;;
46731;SDS011;32477;51.474;5.696;2024-01-16T05:52:26;19.27;;;8.10;;
46731;SDS011;32477;51.474;5.696;2024-01-16T05:54:51;21.23;;;7.80;;
46731;SDS011;32477;51.474;5.696;2024-01-16T05:57:17;18.35;;;8.27;;
46731;SDS011;32477;51.474;5.696;2024-01-16T05:59:43;24.63;;;8.15;;
46731;SDS011;32477;51.474;5.696;2024-01-16T06:02:09;20.23;;;7.22;;
46731;SDS011;32477;51.474;5.696;2024-01-16T06:04:35;19.50;;;6.85;;
46731;SDS011;32477;51.474;5.696;2024-01-16T06:07:01;17.45;;;7.60;;
46731;SDS011;32477;51.474;5.696;2024-01-16T06:09:30;13.88;;;7.03;;
46731;SDS011;32477;51.474;5.696;2024-01-16T06:11:57;15.15;;;6.60;;
46731;SDS011;32477;51.474;5.696;2024-01-16T06:14:22;21.80;;;7.68;;
46731;SDS011;32477;51.474;5.696;2024-01-16T06:16:48;15.25;;;6.82;;
46731;SDS011;32477;51.474;5.696;2024-01-16T06:19:15;15.18;;;7.72;;
46731;SDS011;32477;51.474;5.696;2024-01-16T06:21:41;21.02;;;7.03;;
46731;SDS011;32477;51.474;5.696;2024-01-16T06:24:07;16.30;;;7.38;;
46731;SDS011;32477;51.474;5.696;2024-01-16T06:26:33;22.70;;;8.15;;
46731;SDS011;32477;51.474;5.696;2024-01-16T06:28:58;14.02;;;7.78;;
46731;SDS011;32477;51.474;5.696;2024-01-16T06:31:24;27.17;;;8.68;;
46731;SDS011;32477;51.474;5.696;2024-01-16T06:33:51;20.15;;;7.85;;
46731;SDS011;32477;51.474;5.696;2024-01-16T06:36:17;16.63;;;6.32;;
46731;SDS011;32477;51.474;5.696;2024-01-16T06:38:42;19.85;;;7.00;;
46731;SDS011;32477;51.474;5.696;2024-01-16T06:41:08;29.95;;;6.65;;
46731;SDS011;32477;51.474;5.696;2024-01-16T06:43:34;19.33;;;7.28;;
46731;SDS011;32477;51.474;5.696;2024-01-16T06:46:00;17.30;;;7.05;;
46731;SDS011;32477;51.474;5.696;2024-01-16T06:48:26;18.10;;;7.32;;
46731;SDS011;32477;51.474;5.696;2024-01-16T06:50:51;13.15;;;6.13;;
46731;SDS011;32477;51.474;5.696;2024-01-16T06:53:17;16.25;;;6.50;;
46731;SDS011;32477;51.474;5.696;2024-01-16T06:55:43;17.27;;;6.95;;
46731;SDS011;32477;51.474;5.696;2024-01-16T06:58:08;27.13;;;6.38;;
46731;SDS011;32477;51.474;5.696;2024-01-16T07:00:35;22.85;;;7.30;;
46731;SDS011;32477;51.474;5.696;2024-01-16T07:03:01;16.02;;;6.13;;
46731;SDS011;32477;51.474;5.696;2024-01-16T07:05:27;10.77;;;6.43;;
46731;SDS011;32477;51.474;5.696;2024-01-16T07:07:54;12.73;;;6.72;;
46731;SDS011;32477;51.474;5.696;2024-01-16T07:10:20;20.95;;;6.60;;
46731;SDS011;32477;51.474;5.696;2024-01-16T07:12:47;14.77;;;6.20;;
46731;SDS011;32477;51.474;5.696;2024-01-16T07:15:14;9.50;;;5.32;;
46731;SDS011;32477;51.474;5.696;2024-01-16T07:17:40;15.02;;;6.00;;
46731;SDS011;32477;51.474;5.696;2024-01-16T07:20:06;17.73;;;6.18;;
46731;SDS011;32477;51.474;5.696;2024-01-16T07:22:32;15.27;;;6.00;;
46731;SDS011;32477;51.474;5.696;2024-01-16T07:24:59;14.38;;;6.20;;
46731;SDS011;32477;51.474;5.696;2024-01-16T07:27:25;21.35;;;5.38;;
46731;SDS011;32477;51.474;5.696;2024-01-16T07:29:51;11.85;;;5.32;;
46731;SDS011;32477;51.474;5.696;2024-01-16T07:32:16;13.35;;;6.28;;
46731;SDS011;32477;51.474;5.696;2024-01-16T07:34:42;15.90;;;5.68;;
46731;SDS011;32477;51.474;5.696;2024-01-16T07:37:08;10.43;;;5.55;;
46731;SDS011;32477;51.474;5.696;2024-01-16T07:39:34;17.02;;;6.07;;
46731;SDS011;32477;51.474;5.696;2024-01-16T07:41:59;15.00;;;5.55;;
46731;SDS011;32477;51.474;5.696;2024-01-16T07:44:25;17.48;;;5.63;;
46731;SDS011;32477;51.474;5.696;2024-01-16T07:46:51;22.48;;;5.82;;
46731;SDS011;32477;51.474;5.696;2024-01-16T07:49:17;14.75;;;5.32;;
46731;SDS011;32477;51.474;5.696;2024-01-16T07:51:42;15.50;;;5.57;;
46731;SDS011;32477;51.474;5.696;2024-01-16T07:54:09;10.77;;;5.30;;
46731;SDS011;32477;51.474;5.696;2024-01-16T07:56:35;12.70;;;5.47;;
46731;SDS011;32477;51.474;5.696;2024-01-16T07:59:03;17.27;;;6.10;;
46731;SDS011;32477;51.474;5.696;2024-01-16T08:01:28;18.60;;;5.68;;
46731;SDS011;32477;51.474;5.696;2024-01-16T08:03:54;12.43;;;6.05;;
46731;SDS011;32477;51.474;5.696;2024-01-16T08:06:20;19.67;;;6.55;;
46731;SDS011;32477;51.474;5.696;2024-01-16T08:08:47;15.00;;;5.60;;
46731;SDS011;32477;51.474;5.696;2024-01-16T08:11:13;20.05;;;6.75;;
46731;SDS011;32477;51.474;5.696;2024-01-16T08:13:40;13.20;;;5.53;;
46731;SDS011;32477;51.474;5.696;2024-01-16T08:16:05;28.23;;;7.13;;
46731;SDS011;32477;51.474;5.696;2024-01-16T08:18:32;20.85;;;5.55;;
46731;SDS011;32477;51.474;5.696;2024-01-16T08:20:58;15.23;;;5.80;;
46731;SDS011;32477;51.474;5.696;2024-01-16T08:23:27;13.13;;;5.45;;
46731;SDS011;32477;51.474;5.696;2024-01-16T08:25:52;22.70;;;6.45;;
46731;SDS011;32477;51.474;5.696;2024-01-16T08:28:18;14.98;;;6.28;;
46731;SDS011;32477;51.474;5.696;2024-01-16T08:30:44;16.75;;;6.35;;
46731;SDS011;32477;51.474;5.696;2024-01-16T08:33:10;20.38;;;6.97;;
46731;SDS011;32477;51.474;5.696;2024-01-16T08:35:36;17.38;;;6.70;;
46731;SDS011;32477;51.474;5.696;2024-01-16T08:38:02;17.27;;;6.30;;
46731;SDS011;32477;51.474;5.696;2024-01-16T08:40:29;16.88;;;6.57;;
46731;SDS011;32477;51.474;5.696;2024-01-16T08:42:55;18.13;;;7.03;;
46731;SDS011;32477;51.474;5.696;2024-01-16T08:45:21;14.75;;;5.78;;
46731;SDS011;32477;51.474;5.696;2024-01-16T08:47:46;23.50;;;6.10;;
46731;SDS011;32477;51.474;5.696;2024-01-16T08:50:12;21.02;;;6.05;;
46731;SDS011;32477;51.474;5.696;2024-01-16T08:52:39;22.63;;;6.13;;
46731;SDS011;32477;51.474;5.696;2024-01-16T08:55:04;25.70;;;6.43;;
46731;SDS011;32477;51.474;5.696;2024-01-16T08:57:30;18.70;;;5.43;;
46731;SDS011;32477;51.474;5.696;2024-01-16T08:59:56;13.35;;;5.05;;
46731;SDS011;32477;51.474;5.696;2024-01-16T09:02:22;14.27;;;5.63;;
46731;SDS011;32477;51.474;5.696;2024-01-16T09:04:49;11.73;;;5.30;;
46731;SDS011;32477;51.474;5.696;2024-01-16T09:07:15;19.38;;;6.45;;
46731;SDS011;32477;51.474;5.696;2024-01-16T09:09:41;16.27;;;5.68;;
46731;SDS011;32477;51.474;5.696;2024-01-16T09:12:10;12.73;;;5.03;;
46731;SDS011;32477;51.474;5.696;2024-01-16T09:14:36;12.13;;;5.00;;
46731;SDS011;32477;51.474;5.696;2024-01-16T09:17:01;10.30;;;5.00;;
46731;SDS011;32477;51.474;5.696;2024-01-16T09:19:28;18.45;;;5.55;;
46731;SDS011;32477;51.474;5.696;2024-01-16T09:21:54;15.38;;;5.78;;
46731;SDS011;32477;51.474;5.696;2024-01-16T09:24:20;16.55;;;5.65;;
46731;SDS011;32477;51.474;5.696;2024-01-16T09:26:46;19.05;;;5.88;;
46731;SDS011;32477;51.474;5.696;2024-01-16T09:29:12;19.45;;;5.63;;
46731;SDS011;32477;51.474;5.696;2024-01-16T09:31:39;14.27;;;5.15;;
46731;SDS011;32477;51.474;5.696;2024-01-16T09:34:05;9.48;;;4.57;;
46731;SDS011;32477;51.474;5.696;2024-01-16T09:36:31;10.07;;;5.22;;
46731;SDS011;32477;51.474;5.696;2024-01-16T09:38:56;23.73;;;5.97;;
46731;SDS011;32477;51.474;5.696;2024-01-16T09:41:23;14.73;;;4.68;;
46731;SDS011;32477;51.474;5.696;2024-01-16T09:43:48;13.60;;;5.40;;
46731;SDS011;32477;51.474;5.696;2024-01-16T09:46:15;23.38;;;5.63;;
46731;SDS011;32477;51.474;5.696;2024-01-16T09:48:44;17.85;;;4.90;;
46731;SDS011;32477;51.474;5.696;2024-01-16T09:51:12;14.50;;;4.32;;
46731;SDS011;32477;51.474;5.696;2024-01-16T09:53:40;15.55;;;4.93;;
46731;SDS011;32477;51.474;5.696;2024-01-16T09:56:08;12.25;;;5.32;;
46731;SDS011;32477;51.474;5.696;2024-01-16T09:58:39;20.45;;;5.07;;
46731;SDS011;32477;51.474;5.696;2024-01-16T10:01:05;12.73;;;4.93;;
46731;SDS011;32477;51.474;5.696;2024-01-16T10:03:31;12.40;;;5.47;;
46731;SDS011;32477;51.474;5.696;2024-01-16T10:05:59;20.77;;;5.30;;
46731;SDS011;32477;51.474;5.696;2024-01-16T10:08:30;10.65;;;4.30;;
46731;SDS011;32477;51.474;5.696;2024-01-16T10:10:56;12.60;;;4.82;;
46731;SDS011;32477;51.474;5.696;2024-01-16T10:13:23;6.95;;;3.88;;
46731;SDS011;32477;51.474;5.696;2024-01-16T10:15:49;9.10;;;4.65;;
46731;SDS011;32477;51.474;5.696;2024-01-16T10:18:22;9.13;;;4.53;;
46731;SDS011;32477;51.474;5.696;2024-01-16T10:20:49;16.17;;;4.28;;
46731;SDS011;32477;51.474;5.696;2024-01-16T10:23:22;12.88;;;4.50;;
46731;SDS011;32477;51.474;5.696;2024-01-16T10:28:35;14.80;;;5.13;;
46731;SDS011;32477;51.474;5.696;2024-01-16T10:31:06;12.50;;;5.13;;
46731;SDS011;32477;51.474;5.696;2024-01-16T10:33:36;19.27;;;5.00;;
46731;SDS011;32477;51.474;5.696;2024-01-16T10:36:14;17.52;;;4.90;;
46731;SDS011;32477;51.474;5.696;2024-01-16T10:38:47;7.63;;;4.43;;
46731;SDS011;32477;51.474;5.696;2024-01-16T10:41:13;12.60;;;4.13;;
46731;SDS011;32477;51.474;5.696;2024-01-16T10:43:40;11.15;;;4.43;;
46731;SDS011;32477;51.474;5.696;2024-01-16T10:46:16;12.63;;;4.40;;
46731;SDS011;32477;51.474;5.696;2024-01-16T10:48:43;10.95;;;4.60;;
46731;SDS011;32477;51.474;5.696;2024-01-16T10:51:10;12.15;;;4.63;;
46731;SDS011;32477;51.474;5.696;2024-01-16T10:53:41;14.38;;;4.88;;
46731;SDS011;32477;51.474;5.696;2024-01-16T10:56:17;15.00;;;3.65;;
46731;SDS011;32477;51.474;5.696;2024-01-16T10:58:44;11.25;;;4.10;;
46731;SDS011;32477;51.474;5.696;2024-01-16T11:01:14;8.52;;;4.20;;
46731;SDS011;32477;51.474;5.696;2024-01-16T11:03:48;19.92;;;3.83;;
46731;SDS011;32477;51.474;5.696;2024-01-16T11:06:15;14.35;;;4.20;;
46731;SDS011;32477;51.474;5.696;2024-01-16T11:08:42;14.68;;;4.93;;
46731;SDS011;32477;51.474;5.696;2024-01-16T11:11:10;9.63;;;4.82;;
46731;SDS011;32477;51.474;5.696;2024-01-16T11:13:38;12.43;;;4.85;;
46731;SDS011;32477;51.474;5.696;2024-01-16T11:16:05;10.43;;;4.20;;
46731;SDS011;32477;51.474;5.696;2024-01-16T11:18:32;10.52;;;4.13;;
46731;SDS011;32477;51.474;5.696;2024-01-16T11:20:59;7.78;;;3.75;;
46731;SDS011;32477;51.474;5.696;2024-01-16T11:23:36;10.52;;;4.65;;
46731;SDS011;32477;51.474;5.696;2024-01-16T11:28:51;13.80;;;4.28;;
46731;SDS011;32477;51.474;5.696;2024-01-16T11:31:31;11.70;;;4.25;;
46731;SDS011;32477;51.474;5.696;2024-01-16T11:33:58;7.82;;;3.97;;
46731;SDS011;32477;51.474;5.696;2024-01-16T11:39:19;9.85;;;4.10;;
46731;SDS011;32477;51.474;5.696;2024-01-16T11:41:53;12.88;;;4.07;;
46731;SDS011;32477;51.474;5.696;2024-01-16T11:44:39;9.77;;;4.05;;
46731;SDS011;32477;51.474;5.696;2024-01-16T11:47:06;9.48;;;3.70;;
46731;SDS011;32477;51.474;5.696;2024-01-16T11:49:33;13.90;;;4.57;;
46731;SDS011;32477;51.474;5.696;2024-01-16T11:52:02;8.80;;;3.58;;
46731;SDS011;32477;51.474;5.696;2024-01-16T11:54:28;10.15;;;4.07;;
46731;SDS011;32477;51.474;5.696;2024-01-16T12:02:48;10.02;;;4.38;;
46731;SDS011;32477;51.474;5.696;2024-01-16T12:05:16;12.13;;;4.15;;
46731;SDS011;32477;51.474;5.696;2024-01-16T12:07:42;12.20;;;4.00;;
46731;SDS011;32477;51.474;5.696;2024-01-16T12:10:10;10.68;;;3.67;;
46731;SDS011;32477;51.474;5.696;2024-01-16T12:12:36;11.88;;;4.30;;
46731;SDS011;32477;51.474;5.696;2024-01-16T12:15:02;11.18;;;4.28;;
46731;SDS011;32477;51.474;5.696;2024-01-16T12:17:29;9.98;;;4.07;;
46731;SDS011;32477;51.474;5.696;2024-01-16T12:19:54;11.68;;;4.43;;
46731;SDS011;32477;51.474;5.696;2024-01-16T12:22:20;7.50;;;4.28;;
46731;SDS011;32477;51.474;5.696;2024-01-16T12:24:47;10.35;;;4.47;;
46731;SDS011;32477;51.474;5.696;2024-01-16T12:27:13;15.40;;;4.00;;
46731;SDS011;32477;51.474;5.696;2024-01-16T12:29:40;16.60;;;4.68;;
46731;SDS011;32477;51.474;5.696;2024-01-16T12:32:12;6.95;;;3.80;;
46731;SDS011;32477;51.474;5.696;2024-01-16T12:34:58;14.27;;;4.45;;
46731;SDS011;32477;51.474;5.696;2024-01-16T12:37:23;8.07;;;4.23;;
46731;SDS011;32477;51.474;5.696;2024-01-16T12:39:49;11.45;;;4.28;;
46731;SDS011;32477;51.474;5.696;2024-01-16T12:42:16;9.02;;;3.92;;
46731;SDS011;32477;51.474;5.696;2024-01-16T12:44:43;12.23;;;4.22;;
46731;SDS011;32477;51.474;5.696;2024-01-16T12:47:11;8.10;;;3.78;;
46731;SDS011;32477;51.474;5.696;2024-01-16T12:49:40;10.98;;;3.88;;
46731;SDS011;32477;51.474;5.696;2024-01-16T12:52:19;11.50;;;4.13;;
46731;SDS011;32477;51.474;5.696;2024-01-16T12:54:47;12.80;;;4.35;;
46731;SDS011;32477;51.474;5.696;2024-01-16T12:57:20;6.70;;;3.75;;
46731;SDS011;32477;51.474;5.696;2024-01-16T12:59:46;8.88;;;4.10;;
46731;SDS011;32477;51.474;5.696;2024-01-16T13:02:24;9.68;;;4.47;;
46731;SDS011;32477;51.474;5.696;2024-01-16T13:04:59;9.15;;;4.25;;
46731;SDS011;32477;51.474;5.696;2024-01-16T13:07:27;7.75;;;3.60;;
46731;SDS011;32477;51.474;5.696;2024-01-16T13:10:11;10.02;;;4.28;;
46731;SDS011;32477;51.474;5.696;2024-01-16T13:12:40;12.73;;;4.40;;
46731;SDS011;32477;51.474;5.696;2024-01-16T13:15:07;6.57;;;3.63;;
46731;SDS011;32477;51.474;5.696;2024-01-16T13:17:33;12.68;;;4.28;;
46731;SDS011;32477;51.474;5.696;2024-01-16T13:19:59;11.80;;;4.28;;
46731;SDS011;32477;51.474;5.696;2024-01-16T13:22:26;7.72;;;3.40;;
46731;SDS011;32477;51.474;5.696;2024-01-16T13:24:51;6.85;;;3.53;;
46731;SDS011;32477;51.474;5.696;2024-01-16T13:27:17;9.45;;;3.90;;
46731;SDS011;32477;51.474;5.696;2024-01-16T13:29:42;8.43;;;4.53;;
46731;SDS011;32477;51.474;5.696;2024-01-16T13:32:09;9.77;;;3.63;;
46731;SDS011;32477;51.474;5.696;2024-01-16T13:34:35;10.95;;;4.43;;
46731;SDS011;32477;51.474;5.696;2024-01-16T13:37:02;6.90;;;3.92;;
46731;SDS011;32477;51.474;5.696;2024-01-16T13:39:29;10.85;;;3.85;;
46731;SDS011;32477;51.474;5.696;2024-01-16T13:42:01;9.82;;;4.45;;
46731;SDS011;32477;51.474;5.696;2024-01-16T13:44:30;14.05;;;4.45;;
46731;SDS011;32477;51.474;5.696;2024-01-16T13:46:56;10.10;;;3.83;;
46731;SDS011;32477;51.474;5.696;2024-01-16T13:49:21;13.75;;;3.97;;
46731;SDS011;32477;51.474;5.696;2024-01-16T13:51:47;9.30;;;4.20;;
46731;SDS011;32477;51.474;5.696;2024-01-16T13:54:13;8.00;;;3.50;;
46731;SDS011;32477;51.474;5.696;2024-01-16T13:56:38;5.82;;;3.53;;
46731;SDS011;32477;51.474;5.696;2024-01-16T13:59:04;7.25;;;3.70;;
46731;SDS011;32477;51.474;5.696;2024-01-16T14:01:30;10.77;;;3.67;;
46731;SDS011;32477;51.474;5.696;2024-01-16T14:03:55;12.52;;;3.65;;
46731;SDS011;32477;51.474;5.696;2024-01-16T14:06:21;9.23;;;3.70;;
46731;SDS011;32477;51.474;5.696;2024-01-16T14:08:47;11.85;;;4.25;;
46731;SDS011;32477;51.474;5.696;2024-01-16T14:11:13;9.82;;;3.72;;
46731;SDS011;32477;51.474;5.696;2024-01-16T14:13:39;8.40;;;3.80;;
46731;SDS011;32477;51.474;5.696;2024-01-16T14:16:05;10.65;;;3.92;;
46731;SDS011;32477;51.474;5.696;2024-01-16T14:18:30;7.43;;;3.60;;
46731;SDS011;32477;51.474;5.696;2024-01-16T14:20:56;8.18;;;4.13;;
46731;SDS011;32477;51.474;5.696;2024-01-16T14:23:22;13.80;;;3.95;;
46731;SDS011;32477;51.474;5.696;2024-01-16T14:25:47;9.80;;;3.97;;
46731;SDS011;32477;51.474;5.696;2024-01-16T14:28:13;8.77;;;4.13;;
46731;SDS011;32477;51.474;5.696;2024-01-16T14:30:39;9.73;;;3.50;;
46731;SDS011;32477;51.474;5.696;2024-01-16T14:33:05;16.15;;;4.05;;
46731;SDS011;32477;51.474;5.696;2024-01-16T14:35:33;7.78;;;3.47;;
46731;SDS011;32477;51.474;5.696;2024-01-16T14:37:59;14.48;;;4.00;;
46731;SDS011;32477;51.474;5.696;2024-01-16T14:40:25;12.13;;;4.07;;
46731;SDS011;32477;51.474;5.696;2024-01-16T14:42:54;8.23;;;3.47;;
46731;SDS011;32477;51.474;5.696;2024-01-16T14:45:22;10.75;;;4.25;;
46731;SDS011;32477;51.474;5.696;2024-01-16T14:47:49;6.47;;;3.25;;
46731;SDS011;32477;51.474;5.696;2024-01-16T14:50:16;8.48;;;3.65;;